sensor_id;sensor_type;location;lat;lon;timestamp;P1;durP1;ratioP1;P2;durP2;ratioP2
60078;SDS011;45951;45.824;8.824;2023-02-03T00:04:02;2.07;;;1.30;;
60078;SDS011;45951;45.824;8.824;2023-02-03T00:10:02;2.10;;;1.23;;
60078;SDS011;45951;45.824;8.824;2023-02-03T00:16:02;1.63;;;1.00;;
60078;SDS011;45951;45.824;8.824;2023-02-03T00:22:05;1.65;;;0.90;;
60078;SDS011;45951;45.824;8.824;2023-02-03T00:28:05;1.87;;;1.00;;
60078;SDS011;45951;45.824;8.824;2023-02-03T00:34:06;0.60;;;0.60;;
60078;SDS011;45951;45.824;8.824;2023-02-03T00:40:06;0.82;;;0.82;;
60078;SDS011;45951;45.824;8.824;2023-02-03T00:46:07;1.13;;;0.80;;
60078;SDS011;45951;45.824;8.824;2023-02-03T00:52:07;0.97;;;0.83;;
60078;SDS011;45951;45.824;8.824;2023-02-03T00:58:07;1.50;;;0.80;;
60078;SDS011;45951;45.824;8.824;2023-02-03T01:04:08;1.20;;;0.95;;
60078;SDS011;45951;45.824;8.824;2023-02-03T01:10:08;0.70;;;0.70;;
60078;SDS011;45951;45.824;8.824;2023-02-03T01:16:10;0.90;;;0.60;;
60078;SDS011;45951;45.824;8.824;2023-02-03T01:22:12;0.95;;;0.80;;
60078;SDS011;45951;45.824;8.824;2023-02-03T01:28:12;0.93;;;0.75;;
60078;SDS011;45951;45.824;8.824;2023-02-03T01:34:13;0.95;;;0.70;;
60078;SDS011;45951;45.824;8.824;2023-02-03T01:40:15;1.13;;;0.65;;
60078;SDS011;45951;45.824;8.824;2023-02-03T01:46:24;1.02;;;0.80;;
60078;SDS011;45951;45.824;8.824;2023-02-03T01:52:29;0.95;;;0.65;;
60078;SDS011;45951;45.824;8.824;2023-02-03T01:58:31;0.68;;;0.63;;
60078;SDS011;45951;45.824;8.824;2023-02-03T02:04:38;0.68;;;0.68;;
60078;SDS011;45951;45.824;8.824;2023-02-03T02:10:45;0.73;;;0.60;;
60078;SDS011;45951;45.824;8.824;2023-02-03T02:16:51;0.55;;;0.55;;
60078;SDS011;45951;45.824;8.824;2023-02-03T02:41:50;0.57;;;0.57;;
60078;SDS011;45951;45.824;8.824;2023-02-03T02:47:54;0.68;;;0.55;;
60078;SDS011;45951;45.824;8.824;2023-02-03T02:53:59;0.95;;;0.70;;
60078;SDS011;45951;45.824;8.824;2023-02-03T03:00:03;1.35;;;0.73;;
60078;SDS011;45951;45.824;8.824;2023-02-03T03:06:06;0.98;;;0.60;;
60078;SDS011;45951;45.824;8.824;2023-02-03T03:12:13;0.80;;;0.80;;
60078;SDS011;45951;45.824;8.824;2023-02-03T03:18:23;0.60;;;0.50;;
60078;SDS011;45951;45.824;8.824;2023-02-03T03:24:30;0.70;;;0.65;;
60078;SDS011;45951;45.824;8.824;2023-02-03T03:30:33;2.08;;;0.90;;
60078;SDS011;45951;45.824;8.824;2023-02-03T03:36:38;0.70;;;0.70;;
60078;SDS011;45951;45.824;8.824;2023-02-03T03:42:44;1.00;;;0.60;;
60078;SDS011;45951;45.824;8.824;2023-02-03T03:48:59;1.02;;;0.60;;
60078;SDS011;45951;45.824;8.824;2023-02-03T03:55:02;1.00;;;0.60;;
60078;SDS011;45951;45.824;8.824;2023-02-03T04:01:05;0.88;;;0.70;;
60078;SDS011;45951;45.824;8.824;2023-02-03T04:07:06;0.88;;;0.68;;
60078;SDS011;45951;45.824;8.824;2023-02-03T04:13:06;1.45;;;0.63;;
60078;SDS011;45951;45.824;8.824;2023-02-03T04:19:07;1.25;;;0.90;;
60078;SDS011;45951;45.824;8.824;2023-02-03T04:25:08;1.05;;;0.70;;
60078;SDS011;45951;45.824;8.824;2023-02-03T04:31:09;1.55;;;0.85;;
60078;SDS011;45951;45.824;8.824;2023-02-03T04:37:09;1.23;;;0.85;;
60078;SDS011;45951;45.824;8.824;2023-02-03T04:43:09;0.80;;;0.80;;
60078;SDS011;45951;45.824;8.824;2023-02-03T04:49:10;1.17;;;0.80;;
60078;SDS011;45951;45.824;8.824;2023-02-03T04:55:11;0.50;;;0.50;;
60078;SDS011;45951;45.824;8.824;2023-02-03T05:01:11;0.85;;;0.68;;
60078;SDS011;45951;45.824;8.824;2023-02-03T05:07:11;0.90;;;0.77;;
60078;SDS011;45951;45.824;8.824;2023-02-03T05:13:12;1.13;;;0.63;;
60078;SDS011;45951;45.824;8.824;2023-02-03T05:19:12;1.88;;;0.80;;
60078;SDS011;45951;45.824;8.824;2023-02-03T05:25:13;1.30;;;0.80;;
60078;SDS011;45951;45.824;8.824;2023-02-03T05:31:13;0.63;;;0.60;;
60078;SDS011;45951;45.824;8.824;2023-02-03T05:37:13;0.80;;;0.52;;
60078;SDS011;45951;45.824;8.824;2023-02-03T05:43:14;1.35;;;0.80;;
60078;SDS011;45951;45.824;8.824;2023-02-03T05:49:14;0.80;;;0.70;;
60078;SDS011;45951;45.824;8.824;2023-02-03T05:55:15;0.82;;;0.63;;
60078;SDS011;45951;45.824;8.824;2023-02-03T06:01:15;1.02;;;0.80;;
60078;SDS011;45951;45.824;8.824;2023-02-03T06:07:16;2.20;;;0.77;;
60078;SDS011;45951;45.824;8.824;2023-02-03T06:13:16;1.48;;;0.80;;
60078;SDS011;45951;45.824;8.824;2023-02-03T06:19:16;1.50;;;1.20;;
60078;SDS011;45951;45.824;8.824;2023-02-03T06:25:17;1.90;;;0.80;;
60078;SDS011;45951;45.824;8.824;2023-02-03T06:31:17;1.58;;;0.85;;
60078;SDS011;45951;45.824;8.824;2023-02-03T06:37:17;0.95;;;0.80;;
60078;SDS011;45951;45.824;8.824;2023-02-03T06:43:18;1.10;;;0.90;;
60078;SDS011;45951;45.824;8.824;2023-02-03T06:49:18;1.50;;;0.90;;
60078;SDS011;45951;45.824;8.824;2023-02-03T06:55:18;1.63;;;0.88;;
60078;SDS011;45951;45.824;8.824;2023-02-03T07:01:19;1.73;;;0.90;;
60078;SDS011;45951;45.824;8.824;2023-02-03T07:07:19;1.50;;;0.80;;
60078;SDS011;45951;45.824;8.824;2023-02-03T07:13:19;0.80;;;0.70;;
60078;SDS011;45951;45.824;8.824;2023-02-03T07:19:20;1.00;;;0.70;;
60078;SDS011;45951;45.824;8.824;2023-02-03T07:25:20;1.10;;;0.57;;
60078;SDS011;45951;45.824;8.824;2023-02-03T07:31:21;1.40;;;0.80;;
60078;SDS011;45951;45.824;8.824;2023-02-03T07:37:21;1.67;;;0.80;;
60078;SDS011;45951;45.824;8.824;2023-02-03T07:43:22;0.70;;;0.70;;
60078;SDS011;45951;45.824;8.824;2023-02-03T07:49:22;1.33;;;1.08;;
60078;SDS011;45951;45.824;8.824;2023-02-03T07:55:23;1.65;;;1.15;;
60078;SDS011;45951;45.824;8.824;2023-02-03T08:01:23;1.30;;;0.98;;
60078;SDS011;45951;45.824;8.824;2023-02-03T08:07:24;0.80;;;0.80;;
60078;SDS011;45951;45.824;8.824;2023-02-03T08:13:24;1.58;;;1.48;;
60078;SDS011;45951;45.824;8.824;2023-02-03T08:19:24;1.70;;;1.10;;
60078;SDS011;45951;45.824;8.824;2023-02-03T08:25:25;1.73;;;1.20;;
60078;SDS011;45951;45.824;8.824;2023-02-03T08:31:25;1.65;;;1.38;;
60078;SDS011;45951;45.824;8.824;2023-02-03T08:37:25;1.52;;;1.05;;
60078;SDS011;45951;45.824;8.824;2023-02-03T08:43:27;1.83;;;1.52;;
60078;SDS011;45951;45.824;8.824;2023-02-03T08:49:27;2.33;;;1.40;;
60078;SDS011;45951;45.824;8.824;2023-02-03T08:55:29;3.42;;;1.67;;
60078;SDS011;45951;45.824;8.824;2023-02-03T09:01:29;2.05;;;1.45;;
60078;SDS011;45951;45.824;8.824;2023-02-03T09:07:30;1.35;;;1.20;;
60078;SDS011;45951;45.824;8.824;2023-02-03T09:13:31;4.75;;;1.75;;
60078;SDS011;45951;45.824;8.824;2023-02-03T09:19:31;5.95;;;1.75;;
60078;SDS011;45951;45.824;8.824;2023-02-03T09:25:32;4.00;;;1.47;;
60078;SDS011;45951;45.824;8.824;2023-02-03T09:31:33;2.85;;;1.00;;
60078;SDS011;45951;45.824;8.824;2023-02-03T09:37:33;0.70;;;0.70;;
60078;SDS011;45951;45.824;8.824;2023-02-03T09:44:21;1.52;;;0.75;;
60078;SDS011;45951;45.824;8.824;2023-02-03T09:50:20;2.70;;;1.08;;
60078;SDS011;45951;45.824;8.824;2023-02-03T09:56:28;5.20;;;2.03;;
60078;SDS011;45951;45.824;8.824;2023-02-03T10:21:34;1.40;;;1.15;;
60078;SDS011;45951;45.824;8.824;2023-02-03T10:27:36;3.17;;;2.10;;
60078;SDS011;45951;45.824;8.824;2023-02-03T10:33:37;9.05;;;4.80;;
60078;SDS011;45951;45.824;8.824;2023-02-03T10:45:40;7.43;;;4.90;;
60078;SDS011;45951;45.824;8.824;2023-02-03T10:51:46;9.38;;;4.53;;
60078;SDS011;45951;45.824;8.824;2023-02-03T10:57:48;7.53;;;3.92;;
60078;SDS011;45951;45.824;8.824;2023-02-03T11:03:56;4.55;;;2.40;;
60078;SDS011;45951;45.824;8.824;2023-02-03T11:09:58;4.60;;;2.25;;
60078;SDS011;45951;45.824;8.824;2023-02-03T11:16:06;5.15;;;2.55;;
60078;SDS011;45951;45.824;8.824;2023-02-03T11:22:25;6.80;;;3.00;;
60078;SDS011;45951;45.824;8.824;2023-02-03T11:28:27;6.18;;;3.33;;
60078;SDS011;45951;45.824;8.824;2023-02-03T11:34:28;6.47;;;3.80;;
60078;SDS011;45951;45.824;8.824;2023-02-03T11:40:31;7.03;;;3.30;;
60078;SDS011;45951;45.824;8.824;2023-02-03T11:46:35;8.20;;;3.45;;
60078;SDS011;45951;45.824;8.824;2023-02-03T11:52:57;7.38;;;3.25;;
60078;SDS011;45951;45.824;8.824;2023-02-03T12:17:44;3.63;;;2.40;;
60078;SDS011;45951;45.824;8.824;2023-02-03T12:24:18;4.47;;;2.38;;
60078;SDS011;45951;45.824;8.824;2023-02-03T12:30:40;3.88;;;2.10;;
60078;SDS011;45951;45.824;8.824;2023-02-03T12:36:45;5.88;;;2.60;;
60078;SDS011;45951;45.824;8.824;2023-02-03T12:43:32;6.95;;;2.85;;
60078;SDS011;45951;45.824;8.824;2023-02-03T12:49:17;5.80;;;2.80;;
60078;SDS011;45951;45.824;8.824;2023-02-03T12:55:55;4.50;;;2.42;;
60078;SDS011;45951;45.824;8.824;2023-02-03T13:02:16;4.30;;;2.42;;
60078;SDS011;45951;45.824;8.824;2023-02-03T13:08:34;3.30;;;2.30;;
60078;SDS011;45951;45.824;8.824;2023-02-03T13:14:41;6.72;;;2.80;;
60078;SDS011;45951;45.824;8.824;2023-02-03T13:20:49;4.47;;;2.28;;
60078;SDS011;45951;45.824;8.824;2023-02-03T13:51:42;4.63;;;2.80;;
60078;SDS011;45951;45.824;8.824;2023-02-03T13:57:45;5.38;;;3.20;;
60078;SDS011;45951;45.824;8.824;2023-02-03T14:03:50;6.85;;;3.30;;
60078;SDS011;45951;45.824;8.824;2023-02-03T14:10:12;10.18;;;3.58;;
60078;SDS011;45951;45.824;8.824;2023-02-03T14:16:22;7.88;;;3.50;;
60078;SDS011;45951;45.824;8.824;2023-02-03T14:22:24;6.57;;;3.60;;
60078;SDS011;45951;45.824;8.824;2023-02-03T14:34:30;5.68;;;3.05;;
60078;SDS011;45951;45.824;8.824;2023-02-03T15:18:57;9.13;;;4.85;;
60078;SDS011;45951;45.824;8.824;2023-02-03T15:25:00;7.78;;;4.65;;
60078;SDS011;45951;45.824;8.824;2023-02-03T15:31:04;9.82;;;5.60;;
60078;SDS011;45951;45.824;8.824;2023-02-03T15:37:09;10.90;;;5.30;;
60078;SDS011;45951;45.824;8.824;2023-02-03T15:43:18;9.20;;;5.15;;
60078;SDS011;45951;45.824;8.824;2023-02-03T16:01:37;11.93;;;6.05;;
60078;SDS011;45951;45.824;8.824;2023-02-03T16:07:38;14.35;;;7.25;;
60078;SDS011;45951;45.824;8.824;2023-02-03T16:13:41;13.90;;;7.18;;
60078;SDS011;45951;45.824;8.824;2023-02-03T16:19:42;11.45;;;6.63;;
60078;SDS011;45951;45.824;8.824;2023-02-03T16:25:42;12.60;;;6.30;;
60078;SDS011;45951;45.824;8.824;2023-02-03T16:31:44;15.07;;;7.22;;
60078;SDS011;45951;45.824;8.824;2023-02-03T16:38:09;15.32;;;7.85;;
60078;SDS011;45951;45.824;8.824;2023-02-03T16:44:32;14.38;;;7.30;;
60078;SDS011;45951;45.824;8.824;2023-02-03T16:50:51;19.00;;;7.97;;
60078;SDS011;45951;45.824;8.824;2023-02-03T16:56:52;14.70;;;8.13;;
60078;SDS011;45951;45.824;8.824;2023-02-03T17:02:55;11.68;;;6.68;;
60078;SDS011;45951;45.824;8.824;2023-02-03T17:08:55;14.82;;;6.60;;
60078;SDS011;45951;45.824;8.824;2023-02-03T17:14:55;18.75;;;7.90;;
60078;SDS011;45951;45.824;8.824;2023-02-03T17:21:03;16.88;;;7.30;;
60078;SDS011;45951;45.824;8.824;2023-02-03T17:27:04;16.80;;;8.20;;
60078;SDS011;45951;45.824;8.824;2023-02-03T17:33:05;18.35;;;8.60;;
60078;SDS011;45951;45.824;8.824;2023-02-03T17:39:10;18.95;;;9.10;;
60078;SDS011;45951;45.824;8.824;2023-02-03T17:45:11;22.77;;;9.68;;
60078;SDS011;45951;45.824;8.824;2023-02-03T17:51:13;15.95;;;8.85;;
60078;SDS011;45951;45.824;8.824;2023-02-03T17:57:17;16.63;;;9.57;;
60078;SDS011;45951;45.824;8.824;2023-02-03T18:03:18;21.08;;;10.50;;
60078;SDS011;45951;45.824;8.824;2023-02-03T18:09:18;22.02;;;10.43;;
60078;SDS011;45951;45.824;8.824;2023-02-03T18:15:19;18.23;;;9.75;;
60078;SDS011;45951;45.824;8.824;2023-02-03T18:21:20;17.53;;;9.30;;
60078;SDS011;45951;45.824;8.824;2023-02-03T18:27:21;17.77;;;10.32;;
60078;SDS011;45951;45.824;8.824;2023-02-03T18:33:21;18.95;;;9.93;;
60078;SDS011;45951;45.824;8.824;2023-02-03T18:39:22;19.75;;;10.80;;
60078;SDS011;45951;45.824;8.824;2023-02-03T18:45:22;15.70;;;10.07;;
60078;SDS011;45951;45.824;8.824;2023-02-03T18:51:23;19.25;;;10.73;;
60078;SDS011;45951;45.824;8.824;2023-02-03T18:57:24;19.88;;;10.70;;
60078;SDS011;45951;45.824;8.824;2023-02-03T19:03:25;16.33;;;8.73;;
60078;SDS011;45951;45.824;8.824;2023-02-03T19:09:25;17.42;;;9.77;;
60078;SDS011;45951;45.824;8.824;2023-02-03T19:15:26;16.63;;;9.13;;
60078;SDS011;45951;45.824;8.824;2023-02-03T19:21:26;16.92;;;8.85;;
60078;SDS011;45951;45.824;8.824;2023-02-03T19:27:26;17.63;;;9.25;;
60078;SDS011;45951;45.824;8.824;2023-02-03T19:33:27;17.20;;;8.25;;
60078;SDS011;45951;45.824;8.824;2023-02-03T19:39:27;16.77;;;8.52;;
60078;SDS011;45951;45.824;8.824;2023-02-03T19:45:27;17.27;;;9.03;;
60078;SDS011;45951;45.824;8.824;2023-02-03T19:51:28;16.20;;;8.88;;
60078;SDS011;45951;45.824;8.824;2023-02-03T19:57:28;16.17;;;9.63;;
60078;SDS011;45951;45.824;8.824;2023-02-03T20:03:28;16.02;;;8.75;;
60078;SDS011;45951;45.824;8.824;2023-02-03T20:09:29;16.50;;;9.00;;
60078;SDS011;45951;45.824;8.824;2023-02-03T20:15:29;16.93;;;8.73;;
60078;SDS011;45951;45.824;8.824;2023-02-03T20:21:29;17.08;;;9.32;;
60078;SDS011;45951;45.824;8.824;2023-02-03T20:27:30;16.63;;;9.03;;
60078;SDS011;45951;45.824;8.824;2023-02-03T20:33:30;17.63;;;9.83;;
60078;SDS011;45951;45.824;8.824;2023-02-03T20:39:31;17.40;;;9.05;;
60078;SDS011;45951;45.824;8.824;2023-02-03T20:45:31;17.00;;;9.20;;
60078;SDS011;45951;45.824;8.824;2023-02-03T20:51:33;17.15;;;8.57;;
60078;SDS011;45951;45.824;8.824;2023-02-03T20:57:33;17.05;;;8.52;;
60078;SDS011;45951;45.824;8.824;2023-02-03T21:03:34;16.83;;;8.73;;
60078;SDS011;45951;45.824;8.824;2023-02-03T21:09:53;17.70;;;9.65;;
60078;SDS011;45951;45.824;8.824;2023-02-03T21:15:54;21.67;;;9.43;;
60078;SDS011;45951;45.824;8.824;2023-02-03T21:21:58;19.27;;;9.80;;
60078;SDS011;45951;45.824;8.824;2023-02-03T21:28:14;18.48;;;9.30;;
60078;SDS011;45951;45.824;8.824;2023-02-03T21:34:23;18.30;;;10.25;;
60078;SDS011;45951;45.824;8.824;2023-02-03T21:40:25;15.85;;;9.27;;
60078;SDS011;45951;45.824;8.824;2023-02-03T21:46:28;16.60;;;10.15;;
60078;SDS011;45951;45.824;8.824;2023-02-03T21:52:31;16.33;;;10.07;;
60078;SDS011;45951;45.824;8.824;2023-02-03T21:58:32;17.70;;;10.37;;
60078;SDS011;45951;45.824;8.824;2023-02-03T22:04:34;19.27;;;10.63;;
60078;SDS011;45951;45.824;8.824;2023-02-03T22:10:34;18.60;;;9.75;;
60078;SDS011;45951;45.824;8.824;2023-02-03T22:16:35;18.90;;;10.60;;
60078;SDS011;45951;45.824;8.824;2023-02-03T22:22:35;17.25;;;10.40;;
60078;SDS011;45951;45.824;8.824;2023-02-03T22:28:36;16.20;;;9.67;;
60078;SDS011;45951;45.824;8.824;2023-02-03T22:34:36;18.58;;;10.00;;
60078;SDS011;45951;45.824;8.824;2023-02-03T22:40:37;18.95;;;10.02;;
60078;SDS011;45951;45.824;8.824;2023-02-03T22:46:37;15.83;;;9.30;;
60078;SDS011;45951;45.824;8.824;2023-02-03T22:52:38;19.25;;;9.80;;
60078;SDS011;45951;45.824;8.824;2023-02-03T22:58:38;19.58;;;9.38;;
60078;SDS011;45951;45.824;8.824;2023-02-03T23:04:39;20.95;;;10.63;;
60078;SDS011;45951;45.824;8.824;2023-02-03T23:10:39;17.15;;;9.50;;
60078;SDS011;45951;45.824;8.824;2023-02-03T23:16:39;17.42;;;10.00;;
60078;SDS011;45951;45.824;8.824;2023-02-03T23:22:40;16.52;;;9.35;;
60078;SDS011;45951;45.824;8.824;2023-02-03T23:28:40;17.88;;;10.23;;
60078;SDS011;45951;45.824;8.824;2023-02-03T23:34:40;17.02;;;9.02;;
60078;SDS011;45951;45.824;8.824;2023-02-03T23:40:59;16.65;;;9.23;;
60078;SDS011;45951;45.824;8.824;2023-02-03T23:47:00;16.33;;;9.18;;
60078;SDS011;45951;45.824;8.824;2023-02-03T23:53:00;19.17;;;10.93;;
60078;SDS011;45951;45.824;8.824;2023-02-03T23:59:01;16.23;;;9.07;;
